Middle Point, Northern Territory

8:42 PM ACST on September 03, 2015 (GMT +0930)
Humpty Doo | | Change Station
CLOSE
Current Station
Personal Weather Station
Location: Humpty Doo, NORTHERN TERRITORY
Elevation: 138 ft
Nearby Weather Stations

Elev 138 ft 12.57 °S, 131.16 °E | Updated 50 seconds ago

Clear
Clear
79.0 °F
Feels Like 82 °F
N
0.0
Wind Variable Wind from WNW
Gusts 0.0 mph

Today
High -- | Low -- °F
--% Chance of Precip.
Yesterday
High -- | Low -- °F
Precip. -- in
6:47 AM 6:40 PM
Waning Gibbous, 71% visible
Pressure 29.98 in
Visibility -9999.0 miles
Clouds
Heat Index 82 °F
Dew Point 71 °F
Humidity 77%
Rainfall 0.00 in
Snow Depth Not available.
UV Not available.
Pollen Not available.
Air Quality Not available.
Flu Activity Not available.
METAR YPDN 031100Z 29008KT CAVOK 27/22 Q1015 RMK SMOKE PLUME TO E, SMOKE ALOFT
Pressure 29.98 in
Visibility -9999.0 miles
Clouds
Heat Index 82 °F
Dew Point 71 °F
Humidity 77%
Rainfall 0.00 in
Snow Depth Not available.
UV Not available.
Pollen Not available.
Air Quality Not available.
Flu Activity Not available.
METAR YPDN 031100Z 29008KT CAVOK 27/22 Q1015 RMK SMOKE PLUME TO E, SMOKE ALOFT

10-Day Weather Forecast

×

Almanac

Astronomy

Sep. 03, 2015 Rise Set
Actual Time
Civil Twilight
Nautical Twilight
Astronomical Twilight
Moon
Length of Visible Light
Length of Day
Tomorrow will be .
, % of the Moon is Illuminated

Today's Extremes

Country Highs Country Lows

Community

WunderPhotos

Upload Photos

1,851,933 photos uploaded!

WunderBlogs® & News

Nearby

Air Quality

  Air Quality AQ Index Pollutant
Not available.

Snow Depth

Station Depth Elevation

Earthquake Activity

City Distance Mag. Time & Date
Minimum magnitude displayed is 2.5.

Coastal Water Temperatures

Place Temperature

Stations

Nearby Weather Stations

Station Location Temp. Windchill Dew Point Humidity Wind Precip. Elev Updated Type